sensor_id;sensor_type;location;lat;lon;timestamp;P1;durP1;ratioP1;P2;durP2;ratioP2
58752;SDS011;44525;46.052;13.610;2023-05-07T00:00:33;14.20;;;9.05;;
58752;SDS011;44525;46.052;13.610;2023-05-07T00:02:59;13.85;;;9.15;;
58752;SDS011;44525;46.052;13.610;2023-05-07T00:05:25;12.38;;;8.73;;
58752;SDS011;44525;46.052;13.610;2023-05-07T00:07:50;12.10;;;9.07;;
58752;SDS011;44525;46.052;13.610;2023-05-07T00:10:17;11.40;;;8.43;;
58752;SDS011;44525;46.052;13.610;2023-05-07T00:12:43;11.10;;;8.50;;
58752;SDS011;44525;46.052;13.610;2023-05-07T00:15:08;14.65;;;9.00;;
58752;SDS011;44525;46.052;13.610;2023-05-07T00:17:34;11.57;;;8.90;;
58752;SDS011;44525;46.052;13.610;2023-05-07T00:19:59;13.27;;;8.55;;
58752;SDS011;44525;46.052;13.610;2023-05-07T00:22:25;11.10;;;8.25;;
58752;SDS011;44525;46.052;13.610;2023-05-07T00:24:50;11.90;;;8.75;;
58752;SDS011;44525;46.052;13.610;2023-05-07T00:27:15;12.05;;;8.85;;
58752;SDS011;44525;46.052;13.610;2023-05-07T00:29:41;12.20;;;9.38;;
58752;SDS011;44525;46.052;13.610;2023-05-07T00:32:06;12.80;;;8.57;;
58752;SDS011;44525;46.052;13.610;2023-05-07T00:34:31;12.10;;;8.77;;
58752;SDS011;44525;46.052;13.610;2023-05-07T00:36:57;11.57;;;8.73;;
58752;SDS011;44525;46.052;13.610;2023-05-07T00:39:22;12.10;;;7.97;;
58752;SDS011;44525;46.052;13.610;2023-05-07T00:41:47;11.77;;;7.95;;
58752;SDS011;44525;46.052;13.610;2023-05-07T00:44:13;13.05;;;8.80;;
58752;SDS011;44525;46.052;13.610;2023-05-07T00:46:39;14.25;;;8.70;;
58752;SDS011;44525;46.052;13.610;2023-05-07T00:49:05;10.75;;;8.52;;
58752;SDS011;44525;46.052;13.610;2023-05-07T00:51:30;13.70;;;9.25;;
58752;SDS011;44525;46.052;13.610;2023-05-07T00:53:56;13.80;;;9.43;;
58752;SDS011;44525;46.052;13.610;2023-05-07T00:56:21;13.82;;;8.73;;
58752;SDS011;44525;46.052;13.610;2023-05-07T00:58:47;14.00;;;8.27;;
58752;SDS011;44525;46.052;13.610;2023-05-07T01:01:13;12.88;;;8.10;;
58752;SDS011;44525;46.052;13.610;2023-05-07T01:03:40;11.60;;;7.95;;
58752;SDS011;44525;46.052;13.610;2023-05-07T01:06:06;11.40;;;8.48;;
58752;SDS011;44525;46.052;13.610;2023-05-07T01:08:33;11.57;;;8.38;;
58752;SDS011;44525;46.052;13.610;2023-05-07T01:11:00;11.18;;;8.13;;
58752;SDS011;44525;46.052;13.610;2023-05-07T01:13:25;13.27;;;8.82;;
58752;SDS011;44525;46.052;13.610;2023-05-07T01:15:52;12.68;;;8.70;;
58752;SDS011;44525;46.052;13.610;2023-05-07T01:18:17;12.15;;;8.13;;
58752;SDS011;44525;46.052;13.610;2023-05-07T01:20:43;13.13;;;8.85;;
58752;SDS011;44525;46.052;13.610;2023-05-07T01:23:08;11.07;;;8.18;;
58752;SDS011;44525;46.052;13.610;2023-05-07T01:25:36;11.73;;;8.30;;
58752;SDS011;44525;46.052;13.610;2023-05-07T01:28:01;11.15;;;7.85;;
58752;SDS011;44525;46.052;13.610;2023-05-07T01:30:27;9.98;;;7.95;;
58752;SDS011;44525;46.052;13.610;2023-05-07T01:33:13;9.88;;;7.70;;
58752;SDS011;44525;46.052;13.610;2023-05-07T01:35:45;10.95;;;8.15;;
58752;SDS011;44525;46.052;13.610;2023-05-07T01:38:12;9.02;;;7.55;;
58752;SDS011;44525;46.052;13.610;2023-05-07T01:40:38;12.43;;;8.18;;
58752;SDS011;44525;46.052;13.610;2023-05-07T01:43:03;12.13;;;8.40;;
58752;SDS011;44525;46.052;13.610;2023-05-07T01:45:30;11.50;;;8.65;;
58752;SDS011;44525;46.052;13.610;2023-05-07T01:47:57;11.95;;;8.30;;
58752;SDS011;44525;46.052;13.610;2023-05-07T01:50:23;11.93;;;7.75;;
58752;SDS011;44525;46.052;13.610;2023-05-07T01:52:50;11.13;;;8.32;;
58752;SDS011;44525;46.052;13.610;2023-05-07T01:55:16;12.32;;;8.27;;
58752;SDS011;44525;46.052;13.610;2023-05-07T01:57:41;10.50;;;7.50;;
58752;SDS011;44525;46.052;13.610;2023-05-07T02:00:07;11.75;;;8.27;;
58752;SDS011;44525;46.052;13.610;2023-05-07T02:02:33;12.88;;;7.95;;
58752;SDS011;44525;46.052;13.610;2023-05-07T02:04:59;16.02;;;7.78;;
58752;SDS011;44525;46.052;13.610;2023-05-07T02:07:27;10.90;;;7.38;;
58752;SDS011;44525;46.052;13.610;2023-05-07T02:09:53;10.57;;;7.25;;
58752;SDS011;44525;46.052;13.610;2023-05-07T02:12:20;13.23;;;7.95;;
58752;SDS011;44525;46.052;13.610;2023-05-07T02:14:45;11.75;;;8.30;;
58752;SDS011;44525;46.052;13.610;2023-05-07T02:17:11;10.75;;;7.38;;
58752;SDS011;44525;46.052;13.610;2023-05-07T02:19:36;11.93;;;7.45;;
58752;SDS011;44525;46.052;13.610;2023-05-07T02:22:01;10.20;;;7.30;;
58752;SDS011;44525;46.052;13.610;2023-05-07T02:24:27;10.38;;;7.97;;
58752;SDS011;44525;46.052;13.610;2023-05-07T02:26:52;11.43;;;7.28;;
58752;SDS011;44525;46.052;13.610;2023-05-07T02:29:17;10.10;;;7.80;;
58752;SDS011;44525;46.052;13.610;2023-05-07T02:31:43;9.68;;;7.28;;
58752;SDS011;44525;46.052;13.610;2023-05-07T02:34:08;11.20;;;8.07;;
58752;SDS011;44525;46.052;13.610;2023-05-07T02:36:33;10.68;;;8.27;;
58752;SDS011;44525;46.052;13.610;2023-05-07T02:38:58;9.80;;;7.20;;
58752;SDS011;44525;46.052;13.610;2023-05-07T02:41:24;11.48;;;7.80;;
58752;SDS011;44525;46.052;13.610;2023-05-07T02:43:49;10.73;;;8.05;;
58752;SDS011;44525;46.052;13.610;2023-05-07T02:46:14;11.25;;;7.65;;
58752;SDS011;44525;46.052;13.610;2023-05-07T02:48:40;11.25;;;8.32;;
58752;SDS011;44525;46.052;13.610;2023-05-07T02:51:06;10.88;;;8.48;;
58752;SDS011;44525;46.052;13.610;2023-05-07T02:53:31;10.40;;;7.78;;
58752;SDS011;44525;46.052;13.610;2023-05-07T02:55:57;10.35;;;6.97;;
58752;SDS011;44525;46.052;13.610;2023-05-07T02:58:24;10.52;;;6.97;;
58752;SDS011;44525;46.052;13.610;2023-05-07T03:00:49;10.52;;;8.05;;
58752;SDS011;44525;46.052;13.610;2023-05-07T03:03:15;11.57;;;8.15;;
58752;SDS011;44525;46.052;13.610;2023-05-07T03:05:40;14.90;;;7.70;;
58752;SDS011;44525;46.052;13.610;2023-05-07T03:08:06;10.85;;;7.10;;
58752;SDS011;44525;46.052;13.610;2023-05-07T03:10:32;9.98;;;6.85;;
58752;SDS011;44525;46.052;13.610;2023-05-07T03:12:57;9.48;;;7.25;;
58752;SDS011;44525;46.052;13.610;2023-05-07T03:15:23;11.38;;;7.15;;
58752;SDS011;44525;46.052;13.610;2023-05-07T03:17:48;10.15;;;7.35;;
58752;SDS011;44525;46.052;13.610;2023-05-07T03:20:13;9.70;;;7.22;;
58752;SDS011;44525;46.052;13.610;2023-05-07T03:22:39;10.75;;;7.25;;
58752;SDS011;44525;46.052;13.610;2023-05-07T03:25:05;10.52;;;7.13;;
58752;SDS011;44525;46.052;13.610;2023-05-07T03:27:31;15.77;;;7.57;;
58752;SDS011;44525;46.052;13.610;2023-05-07T03:29:56;9.82;;;7.35;;
58752;SDS011;44525;46.052;13.610;2023-05-07T03:32:22;13.15;;;7.53;;
58752;SDS011;44525;46.052;13.610;2023-05-07T03:34:47;9.40;;;6.75;;
58752;SDS011;44525;46.052;13.610;2023-05-07T03:37:12;8.38;;;6.80;;
58752;SDS011;44525;46.052;13.610;2023-05-07T03:39:38;9.60;;;7.70;;
58752;SDS011;44525;46.052;13.610;2023-05-07T03:42:03;11.73;;;7.35;;
58752;SDS011;44525;46.052;13.610;2023-05-07T03:44:28;11.77;;;7.10;;
58752;SDS011;44525;46.052;13.610;2023-05-07T03:46:54;8.95;;;6.95;;
58752;SDS011;44525;46.052;13.610;2023-05-07T03:49:20;8.90;;;7.03;;
58752;SDS011;44525;46.052;13.610;2023-05-07T03:51:45;9.75;;;7.35;;
58752;SDS011;44525;46.052;13.610;2023-05-07T03:54:11;8.93;;;6.35;;
58752;SDS011;44525;46.052;13.610;2023-05-07T03:56:36;11.32;;;7.03;;
58752;SDS011;44525;46.052;13.610;2023-05-07T03:59:01;9.52;;;7.03;;
58752;SDS011;44525;46.052;13.610;2023-05-07T04:01:27;10.32;;;7.55;;
58752;SDS011;44525;46.052;13.610;2023-05-07T04:03:52;11.45;;;7.28;;
58752;SDS011;44525;46.052;13.610;2023-05-07T04:06:17;8.45;;;6.30;;
58752;SDS011;44525;46.052;13.610;2023-05-07T04:08:43;9.60;;;6.93;;
58752;SDS011;44525;46.052;13.610;2023-05-07T04:11:08;11.43;;;7.25;;
58752;SDS011;44525;46.052;13.610;2023-05-07T04:13:34;9.50;;;6.63;;
58752;SDS011;44525;46.052;13.610;2023-05-07T04:16:00;10.70;;;6.88;;
58752;SDS011;44525;46.052;13.610;2023-05-07T04:18:27;9.77;;;7.28;;
58752;SDS011;44525;46.052;13.610;2023-05-07T04:20:52;10.88;;;7.22;;
58752;SDS011;44525;46.052;13.610;2023-05-07T04:23:18;8.50;;;6.68;;
58752;SDS011;44525;46.052;13.610;2023-05-07T04:25:43;10.32;;;6.97;;
58752;SDS011;44525;46.052;13.610;2023-05-07T04:28:08;11.57;;;7.35;;
58752;SDS011;44525;46.052;13.610;2023-05-07T04:30:34;9.98;;;7.40;;
58752;SDS011;44525;46.052;13.610;2023-05-07T04:32:59;12.77;;;7.28;;
58752;SDS011;44525;46.052;13.610;2023-05-07T04:35:24;10.65;;;6.93;;
58752;SDS011;44525;46.052;13.610;2023-05-07T04:37:50;9.70;;;7.43;;
58752;SDS011;44525;46.052;13.610;2023-05-07T04:40:15;9.60;;;6.95;;
58752;SDS011;44525;46.052;13.610;2023-05-07T04:42:41;10.73;;;7.50;;
58752;SDS011;44525;46.052;13.610;2023-05-07T04:45:06;10.55;;;7.40;;
58752;SDS011;44525;46.052;13.610;2023-05-07T04:47:33;9.88;;;7.03;;
58752;SDS011;44525;46.052;13.610;2023-05-07T04:49:59;9.57;;;6.85;;
58752;SDS011;44525;46.052;13.610;2023-05-07T04:52:24;11.27;;;7.38;;
58752;SDS011;44525;46.052;13.610;2023-05-07T04:54:49;9.75;;;6.97;;
58752;SDS011;44525;46.052;13.610;2023-05-07T04:57:15;11.73;;;7.18;;
58752;SDS011;44525;46.052;13.610;2023-05-07T04:59:41;10.02;;;7.53;;
58752;SDS011;44525;46.052;13.610;2023-05-07T05:02:07;11.85;;;8.10;;
58752;SDS011;44525;46.052;13.610;2023-05-07T05:04:32;11.60;;;8.13;;
58752;SDS011;44525;46.052;13.610;2023-05-07T05:06:58;14.73;;;9.75;;
58752;SDS011;44525;46.052;13.610;2023-05-07T05:09:23;12.15;;;9.68;;
58752;SDS011;44525;46.052;13.610;2023-05-07T05:11:48;13.45;;;9.93;;
58752;SDS011;44525;46.052;13.610;2023-05-07T05:14:13;13.50;;;8.90;;
58752;SDS011;44525;46.052;13.610;2023-05-07T05:16:39;12.07;;;9.20;;
58752;SDS011;44525;46.052;13.610;2023-05-07T05:19:04;12.52;;;9.13;;
58752;SDS011;44525;46.052;13.610;2023-05-07T05:21:30;10.88;;;8.43;;
58752;SDS011;44525;46.052;13.610;2023-05-07T05:23:56;11.68;;;8.38;;
58752;SDS011;44525;46.052;13.610;2023-05-07T05:26:21;11.38;;;7.85;;
58752;SDS011;44525;46.052;13.610;2023-05-07T05:28:47;13.88;;;8.38;;
58752;SDS011;44525;46.052;13.610;2023-05-07T05:31:12;12.38;;;7.85;;
58752;SDS011;44525;46.052;13.610;2023-05-07T05:33:39;11.48;;;7.53;;
58752;SDS011;44525;46.052;13.610;2023-05-07T05:36:05;8.80;;;6.38;;
58752;SDS011;44525;46.052;13.610;2023-05-07T05:38:31;8.52;;;6.70;;
58752;SDS011;44525;46.052;13.610;2023-05-07T05:40:56;11.63;;;7.25;;
58752;SDS011;44525;46.052;13.610;2023-05-07T05:43:21;10.75;;;7.45;;
58752;SDS011;44525;46.052;13.610;2023-05-07T05:45:47;8.88;;;6.82;;
58752;SDS011;44525;46.052;13.610;2023-05-07T05:48:12;8.35;;;6.13;;
58752;SDS011;44525;46.052;13.610;2023-05-07T05:50:38;10.48;;;5.60;;
58752;SDS011;44525;46.052;13.610;2023-05-07T05:53:03;8.90;;;6.25;;
58752;SDS011;44525;46.052;13.610;2023-05-07T05:55:29;8.55;;;6.03;;
58752;SDS011;44525;46.052;13.610;2023-05-07T05:57:55;8.52;;;5.60;;
58752;SDS011;44525;46.052;13.610;2023-05-07T06:00:21;8.05;;;5.78;;
58752;SDS011;44525;46.052;13.610;2023-05-07T06:02:47;8.23;;;5.50;;
58752;SDS011;44525;46.052;13.610;2023-05-07T06:05:13;9.88;;;5.68;;
58752;SDS011;44525;46.052;13.610;2023-05-07T06:07:38;9.35;;;5.55;;
58752;SDS011;44525;46.052;13.610;2023-05-07T06:10:04;8.35;;;5.82;;
58752;SDS011;44525;46.052;13.610;2023-05-07T06:12:30;7.95;;;5.70;;
58752;SDS011;44525;46.052;13.610;2023-05-07T06:14:55;7.72;;;5.80;;
58752;SDS011;44525;46.052;13.610;2023-05-07T06:17:20;8.88;;;5.47;;
58752;SDS011;44525;46.052;13.610;2023-05-07T06:19:46;8.20;;;5.57;;
58752;SDS011;44525;46.052;13.610;2023-05-07T06:22:11;8.73;;;5.60;;
58752;SDS011;44525;46.052;13.610;2023-05-07T06:24:36;8.27;;;5.35;;
58752;SDS011;44525;46.052;13.610;2023-05-07T06:27:02;7.88;;;5.35;;
58752;SDS011;44525;46.052;13.610;2023-05-07T06:29:27;7.18;;;5.35;;
58752;SDS011;44525;46.052;13.610;2023-05-07T06:31:56;7.03;;;5.18;;
58752;SDS011;44525;46.052;13.610;2023-05-07T06:34:21;6.70;;;4.82;;
58752;SDS011;44525;46.052;13.610;2023-05-07T06:36:47;6.32;;;5.00;;
58752;SDS011;44525;46.052;13.610;2023-05-07T06:39:12;8.85;;;5.05;;
58752;SDS011;44525;46.052;13.610;2023-05-07T06:41:37;6.60;;;4.90;;
58752;SDS011;44525;46.052;13.610;2023-05-07T06:44:04;6.70;;;5.15;;
58752;SDS011;44525;46.052;13.610;2023-05-07T06:46:29;7.82;;;4.80;;
58752;SDS011;44525;46.052;13.610;2023-05-07T06:48:55;7.40;;;5.18;;
58752;SDS011;44525;46.052;13.610;2023-05-07T06:51:21;8.05;;;4.95;;
58752;SDS011;44525;46.052;13.610;2023-05-07T06:53:47;7.57;;;4.70;;
58752;SDS011;44525;46.052;13.610;2023-05-07T06:56:12;6.03;;;4.50;;
58752;SDS011;44525;46.052;13.610;2023-05-07T06:58:37;7.72;;;5.03;;
58752;SDS011;44525;46.052;13.610;2023-05-07T07:01:03;7.70;;;5.28;;
58752;SDS011;44525;46.052;13.610;2023-05-07T07:03:28;7.57;;;5.10;;
58752;SDS011;44525;46.052;13.610;2023-05-07T07:05:54;12.38;;;5.93;;
58752;SDS011;44525;46.052;13.610;2023-05-07T07:08:19;8.90;;;5.82;;
58752;SDS011;44525;46.052;13.610;2023-05-07T07:10:46;7.53;;;5.05;;
58752;SDS011;44525;46.052;13.610;2023-05-07T07:13:12;7.80;;;5.22;;
58752;SDS011;44525;46.052;13.610;2023-05-07T07:15:37;7.80;;;4.88;;
58752;SDS011;44525;46.052;13.610;2023-05-07T07:18:03;7.80;;;4.60;;
58752;SDS011;44525;46.052;13.610;2023-05-07T07:20:28;6.65;;;5.05;;
58752;SDS011;44525;46.052;13.610;2023-05-07T07:22:53;5.95;;;4.55;;
58752;SDS011;44525;46.052;13.610;2023-05-07T07:25:19;6.78;;;4.95;;
58752;SDS011;44525;46.052;13.610;2023-05-07T07:27:44;6.60;;;4.80;;
58752;SDS011;44525;46.052;13.610;2023-05-07T07:30:10;6.25;;;4.60;;
58752;SDS011;44525;46.052;13.610;2023-05-07T07:32:35;7.45;;;4.47;;
58752;SDS011;44525;46.052;13.610;2023-05-07T07:35:00;8.35;;;4.90;;
58752;SDS011;44525;46.052;13.610;2023-05-07T07:37:26;6.70;;;4.55;;
58752;SDS011;44525;46.052;13.610;2023-05-07T07:39:52;6.45;;;4.55;;
58752;SDS011;44525;46.052;13.610;2023-05-07T07:42:17;6.22;;;4.57;;
58752;SDS011;44525;46.052;13.610;2023-05-07T07:44:43;6.75;;;4.30;;
58752;SDS011;44525;46.052;13.610;2023-05-07T07:47:08;8.48;;;4.50;;
58752;SDS011;44525;46.052;13.610;2023-05-07T07:49:34;7.47;;;4.13;;
58752;SDS011;44525;46.052;13.610;2023-05-07T07:52:00;7.00;;;4.63;;
58752;SDS011;44525;46.052;13.610;2023-05-07T07:54:25;7.60;;;4.35;;
58752;SDS011;44525;46.052;13.610;2023-05-07T07:56:51;7.93;;;4.65;;
58752;SDS011;44525;46.052;13.610;2023-05-07T07:59:17;7.57;;;4.32;;
58752;SDS011;44525;46.052;13.610;2023-05-07T08:01:44;7.07;;;5.00;;
58752;SDS011;44525;46.052;13.610;2023-05-07T08:04:09;6.57;;;4.90;;
58752;SDS011;44525;46.052;13.610;2023-05-07T08:06:35;7.72;;;5.00;;
58752;SDS011;44525;46.052;13.610;2023-05-07T08:09:00;8.23;;;4.78;;
58752;SDS011;44525;46.052;13.610;2023-05-07T08:11:26;6.03;;;4.80;;
58752;SDS011;44525;46.052;13.610;2023-05-07T08:13:51;9.80;;;4.72;;
58752;SDS011;44525;46.052;13.610;2023-05-07T08:16:17;7.22;;;4.18;;
58752;SDS011;44525;46.052;13.610;2023-05-07T08:18:42;8.18;;;4.60;;
58752;SDS011;44525;46.052;13.610;2023-05-07T08:21:08;7.90;;;4.43;;
58752;SDS011;44525;46.052;13.610;2023-05-07T08:23:33;8.25;;;4.90;;
58752;SDS011;44525;46.052;13.610;2023-05-07T08:25:59;5.70;;;4.20;;
58752;SDS011;44525;46.052;13.610;2023-05-07T08:28:25;6.85;;;4.28;;
58752;SDS011;44525;46.052;13.610;2023-05-07T08:30:50;6.45;;;4.28;;
58752;SDS011;44525;46.052;13.610;2023-05-07T08:33:16;6.30;;;4.15;;
58752;SDS011;44525;46.052;13.610;2023-05-07T08:35:41;6.72;;;4.50;;
58752;SDS011;44525;46.052;13.610;2023-05-07T08:38:07;7.63;;;4.60;;
58752;SDS011;44525;46.052;13.610;2023-05-07T08:40:34;7.75;;;4.28;;
58752;SDS011;44525;46.052;13.610;2023-05-07T08:43:02;7.32;;;4.53;;
58752;SDS011;44525;46.052;13.610;2023-05-07T08:45:29;6.60;;;4.70;;
58752;SDS011;44525;46.052;13.610;2023-05-07T08:48:05;6.88;;;4.15;;
58752;SDS011;44525;46.052;13.610;2023-05-07T08:50:35;6.82;;;4.53;;
58752;SDS011;44525;46.052;13.610;2023-05-07T08:53:03;6.53;;;3.95;;
58752;SDS011;44525;46.052;13.610;2023-05-07T08:55:29;5.47;;;4.20;;
58752;SDS011;44525;46.052;13.610;2023-05-07T08:57:55;5.25;;;3.97;;
58752;SDS011;44525;46.052;13.610;2023-05-07T09:00:21;6.43;;;4.45;;
58752;SDS011;44525;46.052;13.610;2023-05-07T09:02:46;6.15;;;4.05;;
58752;SDS011;44525;46.052;13.610;2023-05-07T09:05:12;6.55;;;3.90;;
58752;SDS011;44525;46.052;13.610;2023-05-07T09:07:37;5.22;;;3.80;;
58752;SDS011;44525;46.052;13.610;2023-05-07T09:10:03;5.97;;;3.75;;
58752;SDS011;44525;46.052;13.610;2023-05-07T09:12:29;8.35;;;3.92;;
58752;SDS011;44525;46.052;13.610;2023-05-07T09:14:55;5.55;;;3.92;;
58752;SDS011;44525;46.052;13.610;2023-05-07T09:17:20;5.43;;;3.58;;
58752;SDS011;44525;46.052;13.610;2023-05-07T09:19:46;5.38;;;3.80;;
58752;SDS011;44525;46.052;13.610;2023-05-07T09:22:11;5.40;;;3.75;;
58752;SDS011;44525;46.052;13.610;2023-05-07T09:24:37;6.95;;;4.18;;
58752;SDS011;44525;46.052;13.610;2023-05-07T09:27:03;5.60;;;4.03;;
58752;SDS011;44525;46.052;13.610;2023-05-07T09:29:30;5.97;;;4.15;;
58752;SDS011;44525;46.052;13.610;2023-05-07T09:32:00;7.70;;;4.32;;
58752;SDS011;44525;46.052;13.610;2023-05-07T09:34:32;6.15;;;4.28;;
58752;SDS011;44525;46.052;13.610;2023-05-07T09:36:58;5.63;;;4.03;;
58752;SDS011;44525;46.052;13.610;2023-05-07T09:39:25;7.28;;;3.97;;
58752;SDS011;44525;46.052;13.610;2023-05-07T09:41:51;6.85;;;4.20;;
58752;SDS011;44525;46.052;13.610;2023-05-07T09:44:19;6.30;;;4.18;;
58752;SDS011;44525;46.052;13.610;2023-05-07T09:46:45;5.25;;;4.15;;
58752;SDS011;44525;46.052;13.610;2023-05-07T09:49:20;5.22;;;3.78;;
58752;SDS011;44525;46.052;13.610;2023-05-07T09:51:50;6.80;;;4.00;;
58752;SDS011;44525;46.052;13.610;2023-05-07T09:54:17;5.50;;;4.20;;
58752;SDS011;44525;46.052;13.610;2023-05-07T09:56:43;6.88;;;4.35;;
58752;SDS011;44525;46.052;13.610;2023-05-07T09:59:13;6.15;;;4.03;;
58752;SDS011;44525;46.052;13.610;2023-05-07T10:01:40;7.10;;;4.38;;
58752;SDS011;44525;46.052;13.610;2023-05-07T10:04:07;6.22;;;4.43;;
58752;SDS011;44525;46.052;13.610;2023-05-07T10:06:35;5.28;;;3.92;;
58752;SDS011;44525;46.052;13.610;2023-05-07T10:09:02;5.82;;;4.10;;
58752;SDS011;44525;46.052;13.610;2023-05-07T10:11:30;5.95;;;4.30;;
58752;SDS011;44525;46.052;13.610;2023-05-07T10:13:58;6.63;;;4.43;;
58752;SDS011;44525;46.052;13.610;2023-05-07T10:16:23;7.05;;;4.13;;
58752;SDS011;44525;46.052;13.610;2023-05-07T10:18:50;7.45;;;4.13;;
58752;SDS011;44525;46.052;13.610;2023-05-07T10:21:21;6.20;;;4.70;;
58752;SDS011;44525;46.052;13.610;2023-05-07T10:23:53;6.03;;;4.35;;
58752;SDS011;44525;46.052;13.610;2023-05-07T10:26:25;6.32;;;4.35;;
58752;SDS011;44525;46.052;13.610;2023-05-07T10:28:55;6.07;;;4.20;;
58752;SDS011;44525;46.052;13.610;2023-05-07T10:31:45;6.50;;;3.90;;
58752;SDS011;44525;46.052;13.610;2023-05-07T10:34:26;6.15;;;4.28;;
58752;SDS011;44525;46.052;13.610;2023-05-07T10:36:57;7.17;;;4.10;;
58752;SDS011;44525;46.052;13.610;2023-05-07T10:39:23;6.60;;;4.60;;
58752;SDS011;44525;46.052;13.610;2023-05-07T10:41:49;5.80;;;4.28;;
58752;SDS011;44525;46.052;13.610;2023-05-07T10:44:27;5.85;;;4.40;;
58752;SDS011;44525;46.052;13.610;2023-05-07T10:47:06;6.30;;;4.68;;
58752;SDS011;44525;46.052;13.610;2023-05-07T10:49:34;6.18;;;4.38;;
58752;SDS011;44525;46.052;13.610;2023-05-07T10:54:57;6.35;;;4.00;;
58752;SDS011;44525;46.052;13.610;2023-05-07T10:57:40;6.53;;;4.32;;
58752;SDS011;44525;46.052;13.610;2023-05-07T11:00:56;5.95;;;4.18;;
58752;SDS011;44525;46.052;13.610;2023-05-07T11:05:27;5.93;;;4.47;;
58752;SDS011;44525;46.052;13.610;2023-05-07T11:07:58;6.55;;;4.68;;
58752;SDS011;44525;46.052;13.610;2023-05-07T11:13:19;6.35;;;4.10;;
58752;SDS011;44525;46.052;13.610;2023-05-07T11:16:16;6.75;;;4.03;;
58752;SDS011;44525;46.052;13.610;2023-05-07T11:18:53;5.28;;;3.95;;
58752;SDS011;44525;46.052;13.610;2023-05-07T11:21:38;5.30;;;3.78;;
58752;SDS011;44525;46.052;13.610;2023-05-07T11:24:09;5.97;;;3.78;;
58752;SDS011;44525;46.052;13.610;2023-05-07T11:26:55;5.32;;;4.10;;
58752;SDS011;44525;46.052;13.610;2023-05-07T11:29:23;6.25;;;4.03;;
58752;SDS011;44525;46.052;13.610;2023-05-07T11:31:52;5.15;;;3.88;;
58752;SDS011;44525;46.052;13.610;2023-05-07T11:34:22;6.55;;;4.10;;
58752;SDS011;44525;46.052;13.610;2023-05-07T11:36:49;5.63;;;4.00;;
58752;SDS011;44525;46.052;13.610;2023-05-07T11:39:29;5.03;;;3.85;;
58752;SDS011;44525;46.052;13.610;2023-05-07T11:41:57;5.75;;;4.25;;
58752;SDS011;44525;46.052;13.610;2023-05-07T11:44:23;5.57;;;4.10;;
58752;SDS011;44525;46.052;13.610;2023-05-07T11:46:49;6.57;;;4.20;;
58752;SDS011;44525;46.052;13.610;2023-05-07T11:49:14;6.00;;;3.90;;
58752;SDS011;44525;46.052;13.610;2023-05-07T11:51:40;5.40;;;4.10;;
58752;SDS011;44525;46.052;13.610;2023-05-07T11:54:07;6.03;;;4.57;;
58752;SDS011;44525;46.052;13.610;2023-05-07T11:56:34;6.82;;;4.10;;
58752;SDS011;44525;46.052;13.610;2023-05-07T11:59:00;8.85;;;4.00;;
58752;SDS011;44525;46.052;13.610;2023-05-07T12:01:26;5.22;;;3.95;;
58752;SDS011;44525;46.052;13.610;2023-05-07T12:03:51;5.80;;;4.50;;
58752;SDS011;44525;46.052;13.610;2023-05-07T12:06:17;5.97;;;4.00;;
58752;SDS011;44525;46.052;13.610;2023-05-07T12:08:43;5.70;;;4.03;;
58752;SDS011;44525;46.052;13.610;2023-05-07T12:11:14;6.32;;;4.22;;
58752;SDS011;44525;46.052;13.610;2023-05-07T12:13:49;6.45;;;4.50;;
58752;SDS011;44525;46.052;13.610;2023-05-07T12:16:15;7.25;;;4.40;;
58752;SDS011;44525;46.052;13.610;2023-05-07T12:18:41;5.55;;;4.00;;
58752;SDS011;44525;46.052;13.610;2023-05-07T12:21:06;5.90;;;4.13;;
58752;SDS011;44525;46.052;13.610;2023-05-07T12:23:33;6.90;;;4.60;;
58752;SDS011;44525;46.052;13.610;2023-05-07T12:25:59;6.53;;;4.35;;
58752;SDS011;44525;46.052;13.610;2023-05-07T12:28:25;5.95;;;3.90;;
58752;SDS011;44525;46.052;13.610;2023-05-07T12:30:50;6.50;;;4.40;;
58752;SDS011;44525;46.052;13.610;2023-05-07T12:33:23;6.60;;;4.03;;
58752;SDS011;44525;46.052;13.610;2023-05-07T12:35:50;5.97;;;4.05;;
58752;SDS011;44525;46.052;13.610;2023-05-07T12:38:16;6.80;;;4.20;;
58752;SDS011;44525;46.052;13.610;2023-05-07T12:40:55;4.85;;;3.70;;
58752;SDS011;44525;46.052;13.610;2023-05-07T12:43:21;5.60;;;4.00;;
58752;SDS011;44525;46.052;13.610;2023-05-07T12:45:49;5.53;;;3.85;;
58752;SDS011;44525;46.052;13.610;2023-05-07T12:48:16;5.65;;;4.10;;
58752;SDS011;44525;46.052;13.610;2023-05-07T12:50:42;5.18;;;3.75;;
58752;SDS011;44525;46.052;13.610;2023-05-07T12:53:10;5.95;;;3.50;;
58752;SDS011;44525;46.052;13.610;2023-05-07T12:55:47;5.38;;;4.03;;
58752;SDS011;44525;46.052;13.610;2023-05-07T12:58:14;6.20;;;4.15;;
58752;SDS011;44525;46.052;13.610;2023-05-07T13:00:41;6.03;;;4.05;;
58752;SDS011;44525;46.052;13.610;2023-05-07T13:03:08;4.95;;;3.83;;
58752;SDS011;44525;46.052;13.610;2023-05-07T13:05:34;6.28;;;4.00;;
58752;SDS011;44525;46.052;13.610;2023-05-07T13:07:59;5.88;;;4.15;;
58752;SDS011;44525;46.052;13.610;2023-05-07T13:10:25;6.53;;;3.92;;
58752;SDS011;44525;46.052;13.610;2023-05-07T13:12:53;5.70;;;4.13;;
58752;SDS011;44525;46.052;13.610;2023-05-07T13:15:19;6.57;;;3.92;;
58752;SDS011;44525;46.052;13.610;2023-05-07T13:17:44;5.35;;;3.90;;
58752;SDS011;44525;46.052;13.610;2023-05-07T13:20:10;5.03;;;3.80;;
58752;SDS011;44525;46.052;13.610;2023-05-07T13:22:36;5.40;;;3.85;;
58752;SDS011;44525;46.052;13.610;2023-05-07T13:25:02;7.03;;;4.18;;
58752;SDS011;44525;46.052;13.610;2023-05-07T13:27:27;5.63;;;4.10;;
58752;SDS011;44525;46.052;13.610;2023-05-07T13:29:55;5.80;;;4.15;;
58752;SDS011;44525;46.052;13.610;2023-05-07T13:32:21;6.70;;;4.10;;
58752;SDS011;44525;46.052;13.610;2023-05-07T13:34:46;5.50;;;3.95;;
58752;SDS011;44525;46.052;13.610;2023-05-07T13:37:11;6.13;;;4.38;;
58752;SDS011;44525;46.052;13.610;2023-05-07T13:39:37;5.60;;;4.20;;
58752;SDS011;44525;46.052;13.610;2023-05-07T13:42:02;6.28;;;4.00;;
58752;SDS011;44525;46.052;13.610;2023-05-07T13:44:27;6.28;;;4.05;;
58752;SDS011;44525;46.052;13.610;2023-05-07T13:46:53;6.13;;;4.38;;
58752;SDS011;44525;46.052;13.610;2023-05-07T13:49:18;5.97;;;3.85;;
58752;SDS011;44525;46.052;13.610;2023-05-07T13:51:43;5.70;;;4.18;;
58752;SDS011;44525;46.052;13.610;2023-05-07T13:54:09;6.70;;;4.10;;
58752;SDS011;44525;46.052;13.610;2023-05-07T13:56:34;7.20;;;4.10;;
58752;SDS011;44525;46.052;13.610;2023-05-07T13:59:00;7.25;;;4.40;;
58752;SDS011;44525;46.052;13.610;2023-05-07T14:01:25;6.07;;;4.28;;
58752;SDS011;44525;46.052;13.610;2023-05-07T14:03:50;7.50;;;4.57;;
58752;SDS011;44525;46.052;13.610;2023-05-07T14:06:16;6.00;;;4.53;;
58752;SDS011;44525;46.052;13.610;2023-05-07T14:08:41;5.85;;;4.22;;
58752;SDS011;44525;46.052;13.610;2023-05-07T14:11:06;5.80;;;4.30;;
58752;SDS011;44525;46.052;13.610;2023-05-07T14:13:32;7.18;;;4.00;;
58752;SDS011;44525;46.052;13.610;2023-05-07T14:15:59;7.18;;;4.10;;
58752;SDS011;44525;46.052;13.610;2023-05-07T14:18:24;7.22;;;4.10;;
58752;SDS011;44525;46.052;13.610;2023-05-07T14:20:50;7.22;;;4.22;;
58752;SDS011;44525;46.052;13.610;2023-05-07T14:23:15;5.78;;;3.78;;
58752;SDS011;44525;46.052;13.610;2023-05-07T14:25:42;6.88;;;4.25;;
58752;SDS011;44525;46.052;13.610;2023-05-07T14:28:08;7.95;;;4.57;;
58752;SDS011;44525;46.052;13.610;2023-05-07T14:30:33;6.50;;;4.22;;
58752;SDS011;44525;46.052;13.610;2023-05-07T14:33:00;7.82;;;4.70;;
58752;SDS011;44525;46.052;13.610;2023-05-07T14:35:25;7.07;;;4.20;;